Lamkin, Louisiana
Current Conditions -  °F | °C
As of 9:53 PM on Sunday 21 Dec 2014 (Local Time) from KMLU Reporting Station
Clear Clear  
Wind Chill: 45°   Ceiling: Unl
Heat Index: 45°   Visibility: 10mi
Dew Point: 44°   Wind: 3mph
Humidity: 97%   Direction: 170°S
Pressure: 29.94"   Gusts: NA
Location:  32.5324°N, 92.1046°W
Report Text: KMLU 220353Z AUTO 17003KT 10SM CLR 07/07 A2994 RMK AO2 SLP136 T00720067
Loading
Personal Weather Stations






























Interactive Weather Map New forecast layout! Learn more

10-Day Weather Forecast

Advertisements
Track Severe Weather on mobile